Porto Amboim Airport


Codes: FNPA/PBN
Name: Porto Amboim Airport
City: Port Amboim
Country: Angola
Elevation: 16 ft.

Photos at Porto Amboim Airport


   Photos courtesy of SpottingLog. You can add your own sightings and photos by signing up for a free trial today.



No photos found.

Weather at Porto Amboim Airport


Time (UTC)DescriptionTempratureWindCloud coverageVisibilityPressureHumidity
16-Jun-2024 12:00Broken Clouds26°C13 mph, W75%10000m1013hPa62%
16-Jun-2024 15:00Overcast Clouds25°C11 mph, SW92%10000m1011hPa68%
16-Jun-2024 18:00Broken Clouds22°C9 mph, S82%10000m1012hPa88%
16-Jun-2024 21:00Overcast Clouds22°C11 mph, S99%10000m1014hPa89%
17-Jun-2024 00:00Overcast Clouds21°C9 mph, S100%10000m1013hPa87%
17-Jun-2024 03:00Overcast Clouds20°C4 mph, S100%10000m1014hPa89%
17-Jun-2024 06:00Overcast Clouds20°C2 mph, E100%10000m1015hPa88%
17-Jun-2024 09:00Overcast Clouds24°C2 mph, E92%10000m1016hPa69%
17-Jun-2024 12:00Broken Clouds26°C11 mph, W59%10000m1013hPa64%
17-Jun-2024 15:00Broken Clouds24°C11 mph, SW80%10000m1012hPa71%
17-Jun-2024 18:00Overcast Clouds22°C9 mph, S90%10000m1014hPa86%
17-Jun-2024 21:00Overcast Clouds21°C9 mph, S100%10000m1015hPa89%
18-Jun-2024 00:00Overcast Clouds21°C4 mph, SW96%10000m1014hPa90%
18-Jun-2024 03:00Overcast Clouds21°C4 mph, SE99%10000m1014hPa89%
18-Jun-2024 06:00Overcast Clouds21°C2 mph, E100%10000m1015hPa84%
18-Jun-2024 09:00Overcast Clouds24°C4 mph, SW100%10000m1016hPa66%
18-Jun-2024 12:00Overcast Clouds26°C9 mph, SW100%10000m1013hPa61%
18-Jun-2024 15:00Overcast Clouds23°C11 mph, SW100%10000m1012hPa72%
18-Jun-2024 18:00Overcast Clouds21°C7 mph, S100%10000m1013hPa85%
18-Jun-2024 21:00Overcast Clouds21°C9 mph, S100%10000m1014hPa89%
19-Jun-2024 00:00Overcast Clouds20°C7 mph, S96%10000m1014hPa90%
19-Jun-2024 03:00Broken Clouds20°C4 mph, SE78%10000m1013hPa91%
19-Jun-2024 06:00Broken Clouds19°C2 mph, E59%10000m1014hPa92%
19-Jun-2024 09:00Clear Sky24°C4 mph, W4%10000m1014hPa70%
19-Jun-2024 12:00Clear Sky25°C9 mph, W4%10000m1012hPa63%
19-Jun-2024 15:00Few Clouds24°C9 mph, W11%10000m1011hPa70%
19-Jun-2024 18:00Clear Sky21°C7 mph, SW7%10000m1013hPa85%
19-Jun-2024 21:00Clear Sky21°C7 mph, S0%10000m1014hPa89%
20-Jun-2024 00:00Clear Sky20°C4 mph, S0%10000m1013hPa90%
20-Jun-2024 03:00Few Clouds19°C2 mph, E12%10000m1013hPa91%
20-Jun-2024 06:00Clear Sky19°C2 mph, NE7%10000m1013hPa92%
20-Jun-2024 09:00Clear Sky24°C4 mph, SW1%10000m1014hPa70%
20-Jun-2024 12:00Clear Sky25°C11 mph, W4%10000m1012hPa66%
20-Jun-2024 15:00Clear Sky24°C9 mph, W0%10000m1011hPa72%
20-Jun-2024 18:00Clear Sky21°C7 mph, SW4%10000m1013hPa87%
20-Jun-2024 21:00Few Clouds21°C9 mph, S12%10000m1014hPa90%
21-Jun-2024 00:00Few Clouds20°C4 mph, S12%10000m1014hPa91%
21-Jun-2024 03:00Scattered Clouds20°C4 mph, S30%10000m1014hPa91%
21-Jun-2024 06:00Few Clouds20°C4 mph, SE22%10000m1014hPa90%
21-Jun-2024 09:00Scattered Clouds24°C2 mph, W33%10000m1015hPa70%